Flight Track Log - Related Links

Times and Time Zones

All times are in EDT time to prevent confusion due to time zone crossing. See the LXJ342 flight status page for this flight to view local times or setup timezone preferences in your user account.

Time Position Orientation Groundspeed Altitude Reporting Facility
EDT Latitude Longitude Course Direction KTS km/h feet Rate Location/Type
Mon 12:30:44 38.6667 -90.7500 79° East 228 422 4.900  Level Gateway (St. Louis) TRACON
Mon 12:31:32 38.7167 -90.7500 360° North 240 444 6.800 2.633 Climbing Gateway (St. Louis) TRACON
Mon 12:32:22 38.7306 -90.6939 72° East 250 463 9.200 3.105 Climbing Kansas City Center
Mon 12:33:26 38.7367 -90.5911 86° East 279 517 12.700 3.429 Climbing Kansas City Center
Mon 12:34:28 38.7458 -90.4561 85° East 322 597 16.400 3.220 Climbing Kansas City Center
Mon 12:35:29 38.7500 -90.3261 88° East 361 668 19.300 2.390 Climbing Kansas City Center
Mon 12:36:00 38.7120 -89.9303 79° East  Level Estimated
Mon 12:36:31 38.7572 -90.1911 86° East 373 690 21.300  Level Kansas City Center
Mon 12:37:32 38.7642 -90.0486 86° East 398 737 23.300 2.115 Climbing Kansas City Center
Mon 12:38:33 38.7719 -89.8819 87° East 412 763 25.600 1.776 Climbing Kansas City Center
Mon 12:39:37 38.7783 -89.7328 87° East 417 772 27.000 677 Climbing Kansas City Center
Mon 12:40:37 38.7881 -89.5522 86° East 455 843 27.000  Level Kansas City Center
Mon 12:41:41 38.8097 -89.3756 81° East 467 864 27.000  Level Kansas City Center
Mon 12:42:41 38.8300 -89.2147 81° East 460 851 27.000  Level Kansas City Center
Mon 12:43:45 38.8422 -89.0519 84° East 458 848 27.000  Level Kansas City Center
Mon 12:44:47 38.8386 -88.8836 92° East 464 859 27.000  Level Kansas City Center
Mon 12:45:47 38.8364 -88.7192 91° East 465 861 27.000  Level Kansas City Center
Mon 12:46:50 38.8325 -88.5508 92° East 461 855 27.000  Level Kansas City Center
Mon 12:47:51 38.8283 -88.3861 92° East 461 855 27.000  Level Kansas City Center
Mon 12:48:54 38.8239 -88.2211 92° East 461 855 27.000  Level Kansas City Center
Mon 12:49:45 38.8167 -88.0603 93° East 460 851 27.000  Level Indianapolis Center
Mon 12:50:47 38.8122 -87.8961 92° East 458 848 27.000  Level Indianapolis Center
Mon 12:51:48 38.8067 -87.7311 92° East 459 850 27.000  Level Indianapolis Center
Mon 12:52:50 38.8022 -87.5647 92° East 462 856 27.000  Level Indianapolis Center
Mon 12:53:52 38.7969 -87.3989 92° East 462 856 27.000  Level Indianapolis Center
Mon 12:54:54 38.7900 -87.2353 93° East 458 848 27.000  Level Indianapolis Center
Mon 12:55:56 38.7850 -87.0697 92° East 459 850 27.000  Level Indianapolis Center
Mon 12:56:58 38.7778 -86.9050 93° East 458 848 27.000  Level Indianapolis Center
Mon 12:58:00 38.7714 -86.7400 93° East 458 848 27.000  Level Indianapolis Center
Mon 12:59:02 38.7642 -86.5431 93° East 458 848 27.000  Level Indianapolis Center
Mon 13:00:03 38.7572 -86.3808 93° East 454 840 27.000  Level Indianapolis Center
Mon 13:01:05 38.7494 -86.2161 93° East 459 850 27.000  Level Indianapolis Center
Mon 13:02:07 38.7422 -86.0525 93° East 460 851 27.000  Level Indianapolis Center
Mon 13:03:09 38.7342 -85.8836 93° East 460 851 27.000  Level Indianapolis Center
Mon 13:04:11 38.7269 -85.7225 93° East 457 847 27.000  Level Indianapolis Center
Mon 13:05:13 38.7194 -85.5614 93° East 458 848 27.000  Level Indianapolis Center
Mon 13:06:15 38.7100 -85.4003 94° East 457 847 27.000  Level Indianapolis Center
Mon 13:07:17 38.7003 -85.2092 94° East 452 837 27.000  Level Indianapolis Center
Mon 13:08:19 38.6919 -85.0514 94° East 449 832 27.000  Level Indianapolis Center
Mon 13:09:21 38.6828 -84.8908 94° East 453 838 27.000  Level Indianapolis Center
Mon 13:10:23 38.6744 -84.7328 94° East 450 834 27.000  Level Indianapolis Center
Mon 13:11:25 38.6653 -84.5714 94° East 456 845 27.000  Level Indianapolis Center
Mon 13:12:27 38.6544 -84.3961 94° East 451 835 27.000  Level Indianapolis Center
Mon 13:13:29 38.6433 -84.2356 95° East 452 837 27.000  Level Indianapolis Center
Mon 13:14:31 38.6225 -84.0506 98° East 452 837 27.000  Level Indianapolis Center
Mon 13:15:33 38.6044 -83.8914 98° East 450 834 27.000  Level Indianapolis Center
Mon 13:16:34 38.5872 -83.7322 98° East 451 835 27.000  Level Indianapolis Center
Mon 13:17:36 38.5703 -83.5786 98° East 440 814 27.000  Level Indianapolis Center
Mon 13:18:38 38.5519 -83.4272 99° East 432 800 27.000  Level Indianapolis Center
Mon 13:19:40 38.5342 -83.2756 98° East 431 798 27.000  Level Indianapolis Center
Mon 13:20:42 38.5164 -83.1214 98° East 435 806 27.000  Level Indianapolis Center
Mon 13:21:44 38.4958 -82.9467 98° East 427 790 27.000  Level Indianapolis Center
Mon 13:22:46 38.4778 -82.7950 99° East 430 797 27.000  Level Indianapolis Center
Mon 13:23:48 38.4589 -82.6439 99° East 431 798 27.000  Level Indianapolis Center
Mon 13:24:50 38.4406 -82.4944 99° East 426 789 27.000  Level Indianapolis Center
Mon 13:25:52 38.4236 -82.3511 99° East 428 793 27.000  Level Indianapolis Center
Mon 13:26:53 38.4047 -82.2014 99° East 430 797 27.000  Level Indianapolis Center
Mon 13:27:55 38.3817 -82.0206 99° East 431 798 27.000  Level Indianapolis Center
Mon 13:28:57 38.3622 -81.8686 99° East 435 806 27.000  Level Indianapolis Center
Mon 13:29:59 38.3419 -81.7158 100° East 440 814 27.000  Level Indianapolis Center
Mon 13:31:01 38.3172 -81.5631 102° East 444 822 27.000  Level Indianapolis Center
Mon 13:32:03 38.2925 -81.4103 102° East 444 822 27.000  Level Indianapolis Center
Mon 13:33:05 38.2631 -81.2272 102° East 443 821 27.000  Level Indianapolis Center
Mon 13:34:07 38.2386 -81.0750 102° East 443 821 27.000  Level Indianapolis Center
Mon 13:35:09 38.2128 -80.9214 102° East 446 826 27.000  Level Indianapolis Center
Mon 13:36:11 38.1881 -80.7642 101° East 449 832 27.000  Level Indianapolis Center
Mon 13:37:13 38.1619 -80.6114 102° East 448 830 27.000 -290 Level Indianapolis Center
Mon 13:38:15 38.1364 -80.4572 102° East 447 827 26.400 -919 Descending Indianapolis Center
Mon 13:39:17 38.1058 -80.2739 102° East 443 821 25.100 -683 Descending Indianapolis Center
Mon 13:40:18 38.0792 -80.1261 103° East 433 801 25.000 -43 Descending Indianapolis Center
Mon 13:41:37 38.0486 -79.9400 102° East 434 803 25.000  Level Washington Center
Mon 13:42:36 38.0225 -79.7908 102° East 434 803 25.000  Level Washington Center
Mon 13:43:37 37.9986 -79.6419 101° East 434 803 25.000  Level Washington Center
Mon 13:44:35 37.9722 -79.4931 103° East 434 803 25.000  Level Washington Center
Mon 13:45:35 37.9536 -79.3578 100° East 434 803 25.000  Level Washington Center
Mon 13:46:36 37.9583 -79.2025 88° East 429 795 25.000  Level Washington Center
Mon 13:47:34 37.9606 -79.0525 89° East 424 785 25.000  Level Washington Center
Mon 13:48:34 37.9608 -78.8997 90° East 424 785 25.000  Level Washington Center
Mon 13:49:36 37.9628 -78.7472 89° East 424 785 25.000 -836 Level Washington Center
Mon 13:50:36 37.9672 -78.5761 88° East 429 795 23.300 -1.017 Descending Washington Center
Mon 13:51:34 37.9667 -78.4286 90° East 429 795 23.000 -151 Descending Washington Center
Mon 13:52:35 37.9703 -78.2758 88° East 429 795 23.000  Level Washington Center
Mon 13:53:36 37.9650 -78.1336 93° East 438 811 23.000  Level Washington Center
Mon 13:54:34 37.9681 -77.9783 89° East 438 811 23.000  Level Washington Center
Mon 13:55:34 37.9694 -77.8044 89° East 438 811 23.000 -149 Level Washington Center
Mon 13:56:35 37.9700 -77.6464 90° East 438 811 22.700 -1.623 Descending Washington Center
Mon 13:57:36 37.9706 -77.4936 90° East 438 811 19.700 -2.926 Descending Washington Center
Mon 13:58:36 37.9706 -77.3539 90° East 427 790 16.800 -2.695 Descending Washington Center
Mon 13:59:34 37.9703 -77.2303 90° East 404 748 14.400 -1.932 Descending Washington Center
Mon 14:00:34 37.9697 -77.0983 90° East 386 715 13.000 -942 Descending Washington Center
Mon 14:01:35 37.9714 -76.9614 89° East 380 703 12.500 -992 Descending Washington Center
Mon 14:02:35 37.9917 -76.8353 78° East 380 703 11.000 -744 Descending Washington Center
Mon 14:03:36 38.0864 -76.7525 35° Northeast 343 636 11.000  Level Washington Center
Mon 14:04:12 38.1367 -76.7111 33° Northeast 373 690 11.000  Level Washington Center
Mon 14:04:34 38.1703 -76.6772 38° Northeast 343 636 11.000 -197 Level Washington Center
Mon 14:05:13 38.2144 -76.6383 35° Northeast 351 650 10.800 -600 Descending Washington Center
Mon 14:05:34 38.2439 -76.6042 42° Northeast 343 636 10.400 -1.300 Descending Washington Center
Mon 14:06:13 38.2839 -76.5731 31° Northeast 297 550 9.500 -1.800 Descending Washington Center
Mon 14:06:34 38.3092 -76.5389 47° Northeast 310 575 8.600 -1.869 Descending Washington Center
Mon 14:07:14 38.3511 -76.5078 30° Northeast 288 533 7.600 -1.574 Descending Washington Center
Mon 14:07:35 38.3700 -76.4922 33° Northeast 294 544 7.000 -2.066 Descending Washington Center
Mon 14:08:15 38.4225 -76.4425 37° Northeast 292 541 5.500 -1.869 Descending Washington Center
Mon 14:08:36 38.4331 -76.4292 45° Northeast 289 536 5.100 -1.900 Descending Washington Center
Mon 14:09:15 38.4814 -76.3847 36° Northeast 277 513 3.600 -1.700 Descending Washington Center
Mon 14:09:36 38.4939 -76.3717 39° Northeast 284 526 3.400 -444 Descending Washington Center
Mon 14:10:36 38.5483 -76.3164 38° Northeast 264 489 3.000 -203 Descending Washington Center
Mon 14:11:34 38.6028 -76.2664 36° Northeast 249 462 3.000 -252 Level Washington Center
Mon 14:12:35 38.6492 -76.2136 42° Northeast 227 420 2.500 -483 Descending Washington Center
Mon 14:14:28 38.7333 -76.1167 42° Northeast 172 319 1.600 -517 Descending Potomac TRACON
Mon 14:15:29 38.7667 -76.1000 21° North 129 238 1.000 -595 Descending Potomac TRACON
Mon 14:16:29 38.7833 -76.0833 38° Northeast 130 241 400 -300 Descending Potomac TRACON
Mon 14:17:29 38.8000 -76.0667 38° Northeast 129 238 400  Level Potomac TRACON

Login

Don't have an account? Register now (free) for customized features, flight alerts, and more!